sensor_id;sensor_type;location;lat;lon;timestamp;P1;durP1;ratioP1;P2;durP2;ratioP2
3811;SDS011;1921;49.368;11.068;2023-03-01T00:01:15;44.97;;;41.57;;
3811;SDS011;1921;49.368;11.068;2023-03-01T00:03:44;41.30;;;38.87;;
3811;SDS011;1921;49.368;11.068;2023-03-01T00:06:09;45.00;;;41.63;;
3811;SDS011;1921;49.368;11.068;2023-03-01T00:08:36;43.23;;;40.10;;
3811;SDS011;1921;49.368;11.068;2023-03-01T00:11:15;39.37;;;37.23;;
3811;SDS011;1921;49.368;11.068;2023-03-01T00:13:53;43.70;;;40.70;;
3811;SDS011;1921;49.368;11.068;2023-03-01T00:16:23;44.07;;;40.67;;
3811;SDS011;1921;49.368;11.068;2023-03-01T00:18:55;45.27;;;41.50;;
3811;SDS011;1921;49.368;11.068;2023-03-01T00:21:22;43.87;;;40.47;;
3811;SDS011;1921;49.368;11.068;2023-03-01T00:23:49;42.40;;;39.73;;
3811;SDS011;1921;49.368;11.068;2023-03-01T00:26:16;44.53;;;40.90;;
3811;SDS011;1921;49.368;11.068;2023-03-01T00:28:43;42.70;;;40.00;;
3811;SDS011;1921;49.368;11.068;2023-03-01T00:31:14;43.27;;;39.90;;
3811;SDS011;1921;49.368;11.068;2023-03-01T00:33:44;43.23;;;40.47;;
3811;SDS011;1921;49.368;11.068;2023-03-01T00:36:11;44.50;;;41.00;;
3811;SDS011;1921;49.368;11.068;2023-03-01T00:38:41;45.13;;;41.53;;
3811;SDS011;1921;49.368;11.068;2023-03-01T00:41:09;41.30;;;38.80;;
3811;SDS011;1921;49.368;11.068;2023-03-01T00:43:40;44.30;;;41.17;;
3811;SDS011;1921;49.368;11.068;2023-03-01T00:46:08;43.77;;;40.40;;
3811;SDS011;1921;49.368;11.068;2023-03-01T00:48:36;43.73;;;40.40;;
3811;SDS011;1921;49.368;11.068;2023-03-01T00:51:06;44.40;;;41.17;;
3811;SDS011;1921;49.368;11.068;2023-03-01T00:53:34;43.13;;;40.25;;
3811;SDS011;1921;49.368;11.068;2023-03-01T00:56:00;45.05;;;41.00;;
3811;SDS011;1921;49.368;11.068;2023-03-01T00:58:27;41.80;;;39.20;;
3811;SDS011;1921;49.368;11.068;2023-03-01T01:00:53;40.40;;;37.90;;
3811;SDS011;1921;49.368;11.068;2023-03-01T01:03:19;43.23;;;40.43;;
3811;SDS011;1921;49.368;11.068;2023-03-01T01:05:46;43.80;;;41.10;;
3811;SDS011;1921;49.368;11.068;2023-03-01T01:08:12;44.37;;;40.80;;
3811;SDS011;1921;49.368;11.068;2023-03-01T01:10:39;42.63;;;39.97;;
3811;SDS011;1921;49.368;11.068;2023-03-01T01:13:07;43.83;;;40.70;;
3811;SDS011;1921;49.368;11.068;2023-03-01T01:15:33;43.73;;;40.43;;
3811;SDS011;1921;49.368;11.068;2023-03-01T01:18:00;41.80;;;39.20;;
3811;SDS011;1921;49.368;11.068;2023-03-01T01:20:26;42.40;;;39.65;;
3811;SDS011;1921;49.368;11.068;2023-03-01T01:22:52;43.67;;;40.67;;
3811;SDS011;1921;49.368;11.068;2023-03-01T01:25:18;44.70;;;41.43;;
3811;SDS011;1921;49.368;11.068;2023-03-01T01:27:44;42.88;;;40.00;;
3811;SDS011;1921;49.368;11.068;2023-03-01T01:30:10;44.53;;;41.20;;
3811;SDS011;1921;49.368;11.068;2023-03-01T01:32:36;43.55;;;40.05;;
3811;SDS011;1921;49.368;11.068;2023-03-01T01:35:02;42.93;;;40.20;;
3811;SDS011;1921;49.368;11.068;2023-03-01T01:37:37;41.53;;;38.93;;
3811;SDS011;1921;49.368;11.068;2023-03-01T01:40:02;42.27;;;39.50;;
3811;SDS011;1921;49.368;11.068;2023-03-01T01:42:29;44.63;;;40.17;;
3811;SDS011;1921;49.368;11.068;2023-03-01T01:48:01;43.35;;;40.17;;
3811;SDS011;1921;49.368;11.068;2023-03-01T01:50:39;41.83;;;39.17;;
3811;SDS011;1921;49.368;11.068;2023-03-01T01:53:07;42.57;;;39.67;;
3811;SDS011;1921;49.368;11.068;2023-03-01T01:55:42;43.57;;;40.37;;
3811;SDS011;1921;49.368;11.068;2023-03-01T01:58:13;42.75;;;39.80;;
3811;SDS011;1921;49.368;11.068;2023-03-01T02:00:43;41.63;;;38.83;;
3811;SDS011;1921;49.368;11.068;2023-03-01T02:03:13;43.70;;;40.77;;
3811;SDS011;1921;49.368;11.068;2023-03-01T02:06:00;44.00;;;40.40;;
3811;SDS011;1921;49.368;11.068;2023-03-01T02:08:38;42.72;;;39.78;;
3811;SDS011;1921;49.368;11.068;2023-03-01T02:11:07;46.08;;;42.35;;
3811;SDS011;1921;49.368;11.068;2023-03-01T02:13:35;43.03;;;39.83;;
3811;SDS011;1921;49.368;11.068;2023-03-01T02:16:08;42.80;;;39.63;;
3811;SDS011;1921;49.368;11.068;2023-03-01T02:18:37;46.73;;;41.90;;
3811;SDS011;1921;49.368;11.068;2023-03-01T02:21:20;46.55;;;42.13;;
3811;SDS011;1921;49.368;11.068;2023-03-01T02:24:02;43.28;;;39.95;;
3811;SDS011;1921;49.368;11.068;2023-03-01T02:26:48;37.50;;;35.70;;
3811;SDS011;1921;49.368;11.068;2023-03-01T02:29:17;44.70;;;41.13;;
3811;SDS011;1921;49.368;11.068;2023-03-01T02:31:43;43.80;;;40.27;;
3811;SDS011;1921;49.368;11.068;2023-03-01T02:34:17;43.00;;;39.50;;
3811;SDS011;1921;49.368;11.068;2023-03-01T02:36:48;42.92;;;39.75;;
3811;SDS011;1921;49.368;11.068;2023-03-01T02:39:30;42.38;;;39.60;;
3811;SDS011;1921;49.368;11.068;2023-03-01T02:42:08;43.87;;;40.33;;
3811;SDS011;1921;49.368;11.068;2023-03-01T02:44:40;43.83;;;39.90;;
3811;SDS011;1921;49.368;11.068;2023-03-01T02:47:05;43.37;;;40.20;;
3811;SDS011;1921;49.368;11.068;2023-03-01T02:49:32;41.77;;;39.17;;
3811;SDS011;1921;49.368;11.068;2023-03-01T02:52:04;41.07;;;38.27;;
3811;SDS011;1921;49.368;11.068;2023-03-01T02:55:13;41.38;;;38.35;;
3811;SDS011;1921;49.368;11.068;2023-03-01T03:01:22;41.80;;;39.13;;
3811;SDS011;1921;49.368;11.068;2023-03-01T03:03:59;43.90;;;40.67;;
3811;SDS011;1921;49.368;11.068;2023-03-01T03:06:25;41.15;;;38.70;;
3811;SDS011;1921;49.368;11.068;2023-03-01T03:08:51;43.03;;;39.40;;
3811;SDS011;1921;49.368;11.068;2023-03-01T03:11:16;43.10;;;39.57;;
3811;SDS011;1921;49.368;11.068;2023-03-01T03:13:42;42.00;;;38.80;;
3811;SDS011;1921;49.368;11.068;2023-03-01T03:16:12;41.47;;;38.85;;
3811;SDS011;1921;49.368;11.068;2023-03-01T03:18:39;43.67;;;40.40;;
3811;SDS011;1921;49.368;11.068;2023-03-01T03:21:08;42.70;;;39.70;;
3811;SDS011;1921;49.368;11.068;2023-03-01T03:23:35;40.80;;;38.15;;
3811;SDS011;1921;49.368;11.068;2023-03-01T03:26:02;42.80;;;39.80;;
3811;SDS011;1921;49.368;11.068;2023-03-01T03:28:29;43.92;;;40.72;;
3811;SDS011;1921;49.368;11.068;2023-03-01T03:30:56;42.22;;;39.33;;
3811;SDS011;1921;49.368;11.068;2023-03-01T03:33:22;43.00;;;39.65;;
3811;SDS011;1921;49.368;11.068;2023-03-01T03:35:49;40.23;;;37.67;;
3811;SDS011;1921;49.368;11.068;2023-03-01T03:38:16;41.33;;;37.63;;
3811;SDS011;1921;49.368;11.068;2023-03-01T03:40:50;42.78;;;39.78;;
3811;SDS011;1921;49.368;11.068;2023-03-01T03:43:27;42.85;;;39.88;;
3811;SDS011;1921;49.368;11.068;2023-03-01T03:45:54;42.65;;;39.58;;
3811;SDS011;1921;49.368;11.068;2023-03-01T03:48:22;43.90;;;40.60;;
3811;SDS011;1921;49.368;11.068;2023-03-01T03:50:50;40.00;;;37.50;;
3811;SDS011;1921;49.368;11.068;2023-03-01T03:53:18;42.05;;;39.33;;
3811;SDS011;1921;49.368;11.068;2023-03-01T03:55:46;41.90;;;38.83;;
3811;SDS011;1921;49.368;11.068;2023-03-01T03:58:14;42.63;;;39.13;;
3811;SDS011;1921;49.368;11.068;2023-03-01T04:00:41;46.13;;;42.08;;
3811;SDS011;1921;49.368;11.068;2023-03-01T04:03:10;42.55;;;39.78;;
3811;SDS011;1921;49.368;11.068;2023-03-01T04:05:39;47.17;;;43.50;;
3811;SDS011;1921;49.368;11.068;2023-03-01T04:08:05;41.60;;;38.95;;
3811;SDS011;1921;49.368;11.068;2023-03-01T04:10:33;43.30;;;39.90;;
3811;SDS011;1921;49.368;11.068;2023-03-01T04:13:11;44.25;;;41.10;;
3811;SDS011;1921;49.368;11.068;2023-03-01T04:15:40;42.50;;;38.78;;
3811;SDS011;1921;49.368;11.068;2023-03-01T04:18:14;39.90;;;37.65;;
3811;SDS011;1921;49.368;11.068;2023-03-01T04:20:41;43.20;;;40.45;;
3811;SDS011;1921;49.368;11.068;2023-03-01T04:23:11;38.38;;;36.22;;
3811;SDS011;1921;49.368;11.068;2023-03-01T04:25:49;36.70;;;35.00;;
3811;SDS011;1921;49.368;11.068;2023-03-01T04:28:18;42.08;;;39.38;;
3811;SDS011;1921;49.368;11.068;2023-03-01T04:30:54;42.47;;;40.13;;
3811;SDS011;1921;49.368;11.068;2023-03-01T04:33:23;45.38;;;41.58;;
3811;SDS011;1921;49.368;11.068;2023-03-01T04:35:49;41.88;;;39.15;;
3811;SDS011;1921;49.368;11.068;2023-03-01T04:38:16;40.22;;;38.03;;
3811;SDS011;1921;49.368;11.068;2023-03-01T04:40:44;45.93;;;41.30;;
3811;SDS011;1921;49.368;11.068;2023-03-01T04:43:10;40.70;;;38.30;;
3811;SDS011;1921;49.368;11.068;2023-03-01T04:45:40;45.07;;;41.87;;
3811;SDS011;1921;49.368;11.068;2023-03-01T04:48:06;43.53;;;40.57;;
3811;SDS011;1921;49.368;11.068;2023-03-01T04:50:32;47.13;;;43.07;;
3811;SDS011;1921;49.368;11.068;2023-03-01T04:52:58;45.30;;;41.50;;
3811;SDS011;1921;49.368;11.068;2023-03-01T04:55:27;42.77;;;40.00;;
3811;SDS011;1921;49.368;11.068;2023-03-01T04:57:54;44.53;;;41.30;;
3811;SDS011;1921;49.368;11.068;2023-03-01T05:00:20;43.30;;;40.27;;
3811;SDS011;1921;49.368;11.068;2023-03-01T05:05:30;40.83;;;38.53;;
3811;SDS011;1921;49.368;11.068;2023-03-01T05:08:00;42.33;;;39.03;;
3811;SDS011;1921;49.368;11.068;2023-03-01T05:10:34;40.80;;;38.50;;
3811;SDS011;1921;49.368;11.068;2023-03-01T05:13:01;46.30;;;42.87;;
3811;SDS011;1921;49.368;11.068;2023-03-01T05:15:29;45.47;;;42.30;;
3811;SDS011;1921;49.368;11.068;2023-03-01T05:17:57;46.83;;;43.10;;
3811;SDS011;1921;49.368;11.068;2023-03-01T05:20:25;47.80;;;43.40;;
3811;SDS011;1921;49.368;11.068;2023-03-01T05:22:55;41.33;;;38.93;;
3811;SDS011;1921;49.368;11.068;2023-03-01T05:25:24;39.67;;;37.47;;
3811;SDS011;1921;49.368;11.068;2023-03-01T05:27:50;42.73;;;39.90;;
3811;SDS011;1921;49.368;11.068;2023-03-01T05:30:17;38.90;;;36.80;;
3811;SDS011;1921;49.368;11.068;2023-03-01T05:32:44;43.37;;;39.90;;
3811;SDS011;1921;49.368;11.068;2023-03-01T05:35:16;39.93;;;37.60;;
3811;SDS011;1921;49.368;11.068;2023-03-01T05:37:43;41.73;;;38.00;;
3811;SDS011;1921;49.368;11.068;2023-03-01T05:40:12;43.40;;;40.33;;
3811;SDS011;1921;49.368;11.068;2023-03-01T05:42:41;41.77;;;38.80;;
3811;SDS011;1921;49.368;11.068;2023-03-01T05:45:12;40.60;;;38.30;;
3811;SDS011;1921;49.368;11.068;2023-03-01T05:47:40;40.43;;;38.10;;
3811;SDS011;1921;49.368;11.068;2023-03-01T05:50:17;43.33;;;40.53;;
3811;SDS011;1921;49.368;11.068;2023-03-01T05:52:46;40.70;;;38.30;;
3811;SDS011;1921;49.368;11.068;2023-03-01T05:55:18;48.63;;;44.43;;
3811;SDS011;1921;49.368;11.068;2023-03-01T05:57:46;40.33;;;38.03;;
3811;SDS011;1921;49.368;11.068;2023-03-01T06:02:44;39.63;;;37.13;;
3811;SDS011;1921;49.368;11.068;2023-03-01T06:05:11;40.70;;;38.40;;
3811;SDS011;1921;49.368;11.068;2023-03-01T06:07:38;42.03;;;39.27;;
3811;SDS011;1921;49.368;11.068;2023-03-01T06:10:04;45.53;;;42.73;;
3811;SDS011;1921;49.368;11.068;2023-03-01T06:12:32;39.63;;;37.53;;
3811;SDS011;1921;49.368;11.068;2023-03-01T06:14:59;41.10;;;38.43;;
3811;SDS011;1921;49.368;11.068;2023-03-01T06:17:26;41.00;;;38.40;;
3811;SDS011;1921;49.368;11.068;2023-03-01T06:19:54;44.30;;;40.80;;
3811;SDS011;1921;49.368;11.068;2023-03-01T06:22:20;42.93;;;40.00;;
3811;SDS011;1921;49.368;11.068;2023-03-01T06:24:46;43.70;;;40.67;;
3811;SDS011;1921;49.368;11.068;2023-03-01T06:27:12;42.83;;;40.03;;
3811;SDS011;1921;49.368;11.068;2023-03-01T06:29:37;43.57;;;39.77;;
3811;SDS011;1921;49.368;11.068;2023-03-01T06:32:03;45.90;;;41.30;;
3811;SDS011;1921;49.368;11.068;2023-03-01T06:34:29;44.67;;;41.10;;
3811;SDS011;1921;49.368;11.068;2023-03-01T06:36:56;45.50;;;41.80;;
3811;SDS011;1921;49.368;11.068;2023-03-01T06:39:21;43.80;;;40.83;;
3811;SDS011;1921;49.368;11.068;2023-03-01T06:41:47;45.93;;;42.10;;
3811;SDS011;1921;49.368;11.068;2023-03-01T06:44:13;43.70;;;40.60;;
3811;SDS011;1921;49.368;11.068;2023-03-01T06:46:39;46.33;;;42.23;;
3811;SDS011;1921;49.368;11.068;2023-03-01T06:49:05;39.63;;;37.53;;
3811;SDS011;1921;49.368;11.068;2023-03-01T06:51:34;42.03;;;39.43;;
3811;SDS011;1921;49.368;11.068;2023-03-01T06:54:05;42.57;;;39.90;;
3811;SDS011;1921;49.368;11.068;2023-03-01T06:56:31;39.20;;;37.00;;
3811;SDS011;1921;49.368;11.068;2023-03-01T06:58:57;40.57;;;38.00;;
3811;SDS011;1921;49.368;11.068;2023-03-01T07:01:24;43.17;;;40.33;;
3811;SDS011;1921;49.368;11.068;2023-03-01T07:03:50;40.97;;;38.57;;
3811;SDS011;1921;49.368;11.068;2023-03-01T07:06:16;44.50;;;41.67;;
3811;SDS011;1921;49.368;11.068;2023-03-01T07:08:42;42.17;;;39.63;;
3811;SDS011;1921;49.368;11.068;2023-03-01T07:11:08;43.13;;;40.33;;
3811;SDS011;1921;49.368;11.068;2023-03-01T07:13:34;42.87;;;40.17;;
3811;SDS011;1921;49.368;11.068;2023-03-01T07:16:00;41.57;;;39.07;;
3811;SDS011;1921;49.368;11.068;2023-03-01T07:18:25;42.73;;;39.77;;
3811;SDS011;1921;49.368;11.068;2023-03-01T07:20:51;42.50;;;39.73;;
3811;SDS011;1921;49.368;11.068;2023-03-01T07:23:17;48.43;;;44.07;;
3811;SDS011;1921;49.368;11.068;2023-03-01T07:25:42;47.43;;;43.53;;
3811;SDS011;1921;49.368;11.068;2023-03-01T07:28:08;43.80;;;40.70;;
3811;SDS011;1921;49.368;11.068;2023-03-01T07:30:34;50.13;;;45.00;;
3811;SDS011;1921;49.368;11.068;2023-03-01T07:32:59;47.33;;;43.60;;
3811;SDS011;1921;49.368;11.068;2023-03-01T07:35:25;45.03;;;41.43;;
3811;SDS011;1921;49.368;11.068;2023-03-01T07:37:52;45.80;;;42.10;;
3811;SDS011;1921;49.368;11.068;2023-03-01T07:40:18;46.90;;;43.17;;
3811;SDS011;1921;49.368;11.068;2023-03-01T07:42:44;50.03;;;44.97;;
3811;SDS011;1921;49.368;11.068;2023-03-01T07:45:10;48.17;;;44.20;;
3811;SDS011;1921;49.368;11.068;2023-03-01T07:47:38;44.50;;;41.10;;
3811;SDS011;1921;49.368;11.068;2023-03-01T07:50:04;47.03;;;43.23;;
3811;SDS011;1921;49.368;11.068;2023-03-01T07:52:30;51.40;;;47.03;;
3811;SDS011;1921;49.368;11.068;2023-03-01T07:54:56;48.67;;;41.60;;
3811;SDS011;1921;49.368;11.068;2023-03-01T07:57:22;49.47;;;45.17;;
3811;SDS011;1921;49.368;11.068;2023-03-01T07:59:48;52.43;;;47.13;;
3811;SDS011;1921;49.368;11.068;2023-03-01T08:02:14;49.93;;;45.43;;
3811;SDS011;1921;49.368;11.068;2023-03-01T08:04:40;48.57;;;44.27;;
3811;SDS011;1921;49.368;11.068;2023-03-01T08:07:07;49.83;;;45.30;;
3811;SDS011;1921;49.368;11.068;2023-03-01T08:09:36;49.33;;;44.90;;
3811;SDS011;1921;49.368;11.068;2023-03-01T08:12:02;51.97;;;46.97;;
3811;SDS011;1921;49.368;11.068;2023-03-01T08:14:29;50.30;;;45.53;;
3811;SDS011;1921;49.368;11.068;2023-03-01T08:16:56;48.90;;;44.67;;
3811;SDS011;1921;49.368;11.068;2023-03-01T08:19:22;50.80;;;46.27;;
3811;SDS011;1921;49.368;11.068;2023-03-01T08:21:48;52.90;;;47.73;;
3811;SDS011;1921;49.368;11.068;2023-03-01T08:24:14;48.93;;;44.73;;
3811;SDS011;1921;49.368;11.068;2023-03-01T08:26:40;48.90;;;44.83;;
3811;SDS011;1921;49.368;11.068;2023-03-01T08:29:06;51.43;;;46.63;;
3811;SDS011;1921;49.368;11.068;2023-03-01T08:31:33;49.63;;;45.03;;
3811;SDS011;1921;49.368;11.068;2023-03-01T08:34:03;50.23;;;45.60;;
3811;SDS011;1921;49.368;11.068;2023-03-01T08:36:35;50.73;;;45.60;;
3811;SDS011;1921;49.368;11.068;2023-03-01T08:39:05;52.10;;;47.03;;
3811;SDS011;1921;49.368;11.068;2023-03-01T08:41:31;52.70;;;47.40;;
3811;SDS011;1921;49.368;11.068;2023-03-01T08:43:57;54.50;;;49.03;;
3811;SDS011;1921;49.368;11.068;2023-03-01T08:46:24;49.47;;;44.93;;
3811;SDS011;1921;49.368;11.068;2023-03-01T08:48:52;50.97;;;46.27;;
3811;SDS011;1921;49.368;11.068;2023-03-01T08:51:18;53.33;;;48.33;;
3811;SDS011;1921;49.368;11.068;2023-03-01T08:53:45;51.53;;;46.63;;
3811;SDS011;1921;49.368;11.068;2023-03-01T08:56:12;53.70;;;48.10;;
3811;SDS011;1921;49.368;11.068;2023-03-01T08:58:39;53.87;;;48.10;;
3811;SDS011;1921;49.368;11.068;2023-03-01T09:01:08;54.40;;;48.80;;
3811;SDS011;1921;49.368;11.068;2023-03-01T09:03:36;54.73;;;49.20;;
3811;SDS011;1921;49.368;11.068;2023-03-01T09:06:03;54.90;;;49.30;;
3811;SDS011;1921;49.368;11.068;2023-03-01T09:08:36;55.43;;;49.50;;
3811;SDS011;1921;49.368;11.068;2023-03-01T09:11:04;57.83;;;50.07;;
3811;SDS011;1921;49.368;11.068;2023-03-01T09:13:32;55.07;;;49.33;;
3811;SDS011;1921;49.368;11.068;2023-03-01T09:16:00;55.20;;;49.40;;
3811;SDS011;1921;49.368;11.068;2023-03-01T09:18:29;54.77;;;48.87;;
3811;SDS011;1921;49.368;11.068;2023-03-01T09:21:05;60.47;;;49.77;;
3811;SDS011;1921;49.368;11.068;2023-03-01T09:23:45;58.03;;;49.70;;
3811;SDS011;1921;49.368;11.068;2023-03-01T09:26:13;60.30;;;51.60;;
3811;SDS011;1921;49.368;11.068;2023-03-01T09:28:44;61.00;;;48.23;;
3811;SDS011;1921;49.368;11.068;2023-03-01T09:31:11;55.33;;;49.30;;
3811;SDS011;1921;49.368;11.068;2023-03-01T09:33:38;55.80;;;49.17;;
3811;SDS011;1921;49.368;11.068;2023-03-01T09:36:07;54.23;;;48.73;;
3811;SDS011;1921;49.368;11.068;2023-03-01T09:38:45;51.27;;;46.30;;
3811;SDS011;1921;49.368;11.068;2023-03-01T09:47:16;55.37;;;49.60;;
3811;SDS011;1921;49.368;11.068;2023-03-01T09:49:53;56.20;;;50.00;;
3811;SDS011;1921;49.368;11.068;2023-03-01T09:55:29;66.37;;;53.33;;
3811;SDS011;1921;49.368;11.068;2023-03-01T10:01:25;54.50;;;49.07;;
3811;SDS011;1921;49.368;11.068;2023-03-01T10:09:42;57.27;;;51.03;;
3811;SDS011;1921;49.368;11.068;2023-03-01T10:12:20;51.83;;;46.63;;
3811;SDS011;1921;49.368;11.068;2023-03-01T10:14:58;53.33;;;47.77;;
3811;SDS011;1921;49.368;11.068;2023-03-01T10:20:48;52.60;;;47.13;;
3811;SDS011;1921;49.368;11.068;2023-03-01T10:23:32;54.13;;;48.63;;
3811;SDS011;1921;49.368;11.068;2023-03-01T10:28:54;54.93;;;49.13;;
3811;SDS011;1921;49.368;11.068;2023-03-01T10:34:14;52.43;;;47.53;;
3811;SDS011;1921;49.368;11.068;2023-03-01T10:37:12;53.13;;;47.73;;
3811;SDS011;1921;49.368;11.068;2023-03-01T10:42:41;54.47;;;48.43;;
3811;SDS011;1921;49.368;11.068;2023-03-01T10:45:33;53.67;;;48.27;;
3811;SDS011;1921;49.368;11.068;2023-03-01T10:50:43;51.83;;;46.73;;
3811;SDS011;1921;49.368;11.068;2023-03-01T10:53:32;56.43;;;49.40;;
3811;SDS011;1921;49.368;11.068;2023-03-01T10:56:06;53.60;;;48.10;;
3811;SDS011;1921;49.368;11.068;2023-03-01T10:58:56;55.60;;;49.33;;
3811;SDS011;1921;49.368;11.068;2023-03-01T11:01:25;53.37;;;48.00;;
3811;SDS011;1921;49.368;11.068;2023-03-01T11:06:30;56.40;;;50.50;;
3811;SDS011;1921;49.368;11.068;2023-03-01T11:08:55;50.40;;;45.60;;
3811;SDS011;1921;49.368;11.068;2023-03-01T11:11:32;55.93;;;49.90;;
3811;SDS011;1921;49.368;11.068;2023-03-01T11:16:47;55.10;;;49.33;;
3811;SDS011;1921;49.368;11.068;2023-03-01T11:19:23;54.00;;;48.27;;
3811;SDS011;1921;49.368;11.068;2023-03-01T11:24:59;54.23;;;48.53;;
3811;SDS011;1921;49.368;11.068;2023-03-01T11:27:34;56.27;;;49.10;;
3811;SDS011;1921;49.368;11.068;2023-03-01T11:30:18;60.63;;;50.90;;
3811;SDS011;1921;49.368;11.068;2023-03-01T11:35:34;54.67;;;49.17;;
3811;SDS011;1921;49.368;11.068;2023-03-01T11:38:25;55.43;;;49.50;;
3811;SDS011;1921;49.368;11.068;2023-03-01T11:41:01;59.30;;;52.93;;
3811;SDS011;1921;49.368;11.068;2023-03-01T11:43:46;58.00;;;51.80;;
3811;SDS011;1921;49.368;11.068;2023-03-01T11:46:50;51.37;;;46.47;;
3811;SDS011;1921;49.368;11.068;2023-03-01T11:50:49;53.37;;;47.63;;
3811;SDS011;1921;49.368;11.068;2023-03-01T11:55:44;58.87;;;52.33;;
3811;SDS011;1921;49.368;11.068;2023-03-01T12:07:21;52.30;;;47.13;;
3811;SDS011;1921;49.368;11.068;2023-03-01T12:10:18;55.87;;;50.07;;
3811;SDS011;1921;49.368;11.068;2023-03-01T12:16:14;55.77;;;49.90;;
3811;SDS011;1921;49.368;11.068;2023-03-01T12:27:31;56.10;;;49.23;;
3811;SDS011;1921;49.368;11.068;2023-03-01T12:36:02;54.83;;;47.07;;
3811;SDS011;1921;49.368;11.068;2023-03-01T12:41:43;54.83;;;48.87;;
3811;SDS011;1921;49.368;11.068;2023-03-01T12:50:20;57.83;;;50.17;;
3811;SDS011;1921;49.368;11.068;2023-03-01T12:53:18;54.83;;;49.00;;
3811;SDS011;1921;49.368;11.068;2023-03-01T12:55:48;56.73;;;50.73;;
3811;SDS011;1921;49.368;11.068;2023-03-01T13:07:23;54.80;;;49.10;;
3811;SDS011;1921;49.368;11.068;2023-03-01T13:17:48;54.27;;;48.70;;
3811;SDS011;1921;49.368;11.068;2023-03-01T13:20:27;52.03;;;46.90;;
3811;SDS011;1921;49.368;11.068;2023-03-01T13:23:07;55.73;;;49.90;;
3811;SDS011;1921;49.368;11.068;2023-03-01T13:25:59;54.53;;;48.93;;
3811;SDS011;1921;49.368;11.068;2023-03-01T13:38:58;53.43;;;47.80;;
3811;SDS011;1921;49.368;11.068;2023-03-01T13:49:49;52.10;;;47.00;;
3811;SDS011;1921;49.368;11.068;2023-03-01T13:57:39;56.07;;;49.50;;
3811;SDS011;1921;49.368;11.068;2023-03-01T14:00:24;56.13;;;50.17;;
3811;SDS011;1921;49.368;11.068;2023-03-01T14:03:00;59.30;;;52.53;;
3811;SDS011;1921;49.368;11.068;2023-03-01T14:08:36;56.10;;;49.93;;
3811;SDS011;1921;49.368;11.068;2023-03-01T14:19:57;56.93;;;50.90;;
3811;SDS011;1921;49.368;11.068;2023-03-01T14:22:36;53.97;;;48.47;;
3811;SDS011;1921;49.368;11.068;2023-03-01T14:25:06;55.13;;;49.50;;
3811;SDS011;1921;49.368;11.068;2023-03-01T14:30:45;53.60;;;48.10;;
3811;SDS011;1921;49.368;11.068;2023-03-01T14:33:35;56.40;;;50.50;;
3811;SDS011;1921;49.368;11.068;2023-03-01T14:38:36;56.87;;;50.80;;
3811;SDS011;1921;49.368;11.068;2023-03-01T14:41:37;55.13;;;49.23;;
3811;SDS011;1921;49.368;11.068;2023-03-01T14:44:00;55.83;;;49.93;;
3811;SDS011;1921;49.368;11.068;2023-03-01T14:46:38;52.40;;;47.23;;
3811;SDS011;1921;49.368;11.068;2023-03-01T14:49:12;53.50;;;48.00;;
3811;SDS011;1921;49.368;11.068;2023-03-01T14:54:39;55.27;;;49.57;;
3811;SDS011;1921;49.368;11.068;2023-03-01T14:57:22;60.70;;;53.67;;
3811;SDS011;1921;49.368;11.068;2023-03-01T14:59:51;54.47;;;48.87;;
3811;SDS011;1921;49.368;11.068;2023-03-01T15:02:25;50.50;;;45.70;;
3811;SDS011;1921;49.368;11.068;2023-03-01T15:04:55;54.23;;;48.40;;
3811;SDS011;1921;49.368;11.068;2023-03-01T15:07:30;65.80;;;50.23;;
3811;SDS011;1921;49.368;11.068;2023-03-01T15:10:00;53.30;;;48.03;;
3811;SDS011;1921;49.368;11.068;2023-03-01T15:12:37;52.40;;;47.13;;
3811;SDS011;1921;49.368;11.068;2023-03-01T15:15:21;53.83;;;47.47;;
3811;SDS011;1921;49.368;11.068;2023-03-01T15:17:59;53.20;;;47.80;;
3811;SDS011;1921;49.368;11.068;2023-03-01T15:20:29;53.87;;;48.47;;
3811;SDS011;1921;49.368;11.068;2023-03-01T15:23:00;54.67;;;49.43;;
3811;SDS011;1921;49.368;11.068;2023-03-01T15:25:28;53.03;;;47.63;;
3811;SDS011;1921;49.368;11.068;2023-03-01T15:27:56;53.73;;;48.13;;
3811;SDS011;1921;49.368;11.068;2023-03-01T15:30:30;62.43;;;49.10;;
3811;SDS011;1921;49.368;11.068;2023-03-01T15:35:54;51.47;;;46.37;;
3811;SDS011;1921;49.368;11.068;2023-03-01T15:38:35;53.00;;;47.70;;
3811;SDS011;1921;49.368;11.068;2023-03-01T15:41:23;54.33;;;48.87;;
3811;SDS011;1921;49.368;11.068;2023-03-01T15:44:23;54.67;;;48.63;;
3811;SDS011;1921;49.368;11.068;2023-03-01T15:46:53;55.27;;;49.27;;
3811;SDS011;1921;49.368;11.068;2023-03-01T15:49:23;53.63;;;48.13;;
3811;SDS011;1921;49.368;11.068;2023-03-01T15:52:10;52.23;;;47.23;;
3811;SDS011;1921;49.368;11.068;2023-03-01T15:54:56;55.87;;;49.33;;
3811;SDS011;1921;49.368;11.068;2023-03-01T15:57:31;53.27;;;47.87;;
3811;SDS011;1921;49.368;11.068;2023-03-01T15:59:57;53.70;;;48.10;;
3811;SDS011;1921;49.368;11.068;2023-03-01T16:02:23;54.60;;;49.30;;
3811;SDS011;1921;49.368;11.068;2023-03-01T16:04:49;57.30;;;51.37;;
3811;SDS011;1921;49.368;11.068;2023-03-01T16:07:16;56.93;;;50.83;;
3811;SDS011;1921;49.368;11.068;2023-03-01T16:09:42;54.20;;;48.93;;
3811;SDS011;1921;49.368;11.068;2023-03-01T16:12:12;54.07;;;48.27;;
3811;SDS011;1921;49.368;11.068;2023-03-01T16:14:41;54.03;;;48.20;;
3811;SDS011;1921;49.368;11.068;2023-03-01T16:17:07;54.27;;;48.37;;
3811;SDS011;1921;49.368;11.068;2023-03-01T16:19:35;50.53;;;45.83;;
3811;SDS011;1921;49.368;11.068;2023-03-01T16:22:02;53.63;;;48.33;;
3811;SDS011;1921;49.368;11.068;2023-03-01T16:24:29;52.37;;;47.27;;
3811;SDS011;1921;49.368;11.068;2023-03-01T16:26:55;58.03;;;51.70;;
3811;SDS011;1921;49.368;11.068;2023-03-01T16:29:21;59.73;;;50.30;;
3811;SDS011;1921;49.368;11.068;2023-03-01T16:31:46;52.17;;;47.07;;
3811;SDS011;1921;49.368;11.068;2023-03-01T16:34:12;50.53;;;45.93;;
3811;SDS011;1921;49.368;11.068;2023-03-01T16:36:38;53.50;;;47.90;;
3811;SDS011;1921;49.368;11.068;2023-03-01T16:39:04;58.87;;;50.10;;
3811;SDS011;1921;49.368;11.068;2023-03-01T16:41:30;53.37;;;48.10;;
3811;SDS011;1921;49.368;11.068;2023-03-01T16:43:56;54.73;;;48.83;;
3811;SDS011;1921;49.368;11.068;2023-03-01T16:46:22;50.50;;;46.07;;
3811;SDS011;1921;49.368;11.068;2023-03-01T16:48:51;55.83;;;50.03;;
3811;SDS011;1921;49.368;11.068;2023-03-01T16:51:17;56.10;;;50.30;;
3811;SDS011;1921;49.368;11.068;2023-03-01T16:53:45;53.23;;;48.03;;
3811;SDS011;1921;49.368;11.068;2023-03-01T16:56:11;56.83;;;50.50;;
3811;SDS011;1921;49.368;11.068;2023-03-01T16:58:38;51.77;;;46.83;;
3811;SDS011;1921;49.368;11.068;2023-03-01T17:01:06;50.33;;;45.57;;
3811;SDS011;1921;49.368;11.068;2023-03-01T17:03:44;52.40;;;47.23;;
3811;SDS011;1921;49.368;11.068;2023-03-01T17:06:13;51.23;;;46.40;;
3811;SDS011;1921;49.368;11.068;2023-03-01T17:08:42;51.87;;;46.43;;
3811;SDS011;1921;49.368;11.068;2023-03-01T17:11:09;57.37;;;51.20;;
3811;SDS011;1921;49.368;11.068;2023-03-01T17:13:38;50.50;;;45.80;;
3811;SDS011;1921;49.368;11.068;2023-03-01T17:16:06;53.80;;;48.30;;
3811;SDS011;1921;49.368;11.068;2023-03-01T17:18:34;48.43;;;44.00;;
3811;SDS011;1921;49.368;11.068;2023-03-01T17:21:00;51.40;;;46.50;;
3811;SDS011;1921;49.368;11.068;2023-03-01T17:23:27;53.13;;;47.70;;
3811;SDS011;1921;49.368;11.068;2023-03-01T17:25:53;51.47;;;46.60;;
3811;SDS011;1921;49.368;11.068;2023-03-01T17:28:24;51.80;;;46.90;;
3811;SDS011;1921;49.368;11.068;2023-03-01T17:30:52;52.20;;;47.30;;
3811;SDS011;1921;49.368;11.068;2023-03-01T17:33:18;51.20;;;46.50;;